Time;durP1;ratioP1;P1;durP2;ratioP2;P2;SDS_P1;SDS_P2;PMS_P1;PMS_P2;Temp;Humidity;BMP_temperature;BMP_pressure;BME280_temperature;BME280_humidity;BME280_pressure;Samples;Min_cycle;Max_cycle;Signal;HPM_P1;HPM_P2
2023/06/07 10:42:06;;;;;;;9.10;5.30;;;;;;;23.26;55.59;101306.67;103616;1292;599176;-49
2023/06/07 10:44:36;;;;;;;12.10;6.20;;;;;;;23.44;55.19;101307.16;105788;1266;60455;-50
2023/06/07 10:47:24;;;;;;;23.10;16.70;;;;;;;23.74;54.54;101307.37;105843;1266;59477;-49
2023/06/07 10:49:51;;;;;;;14.10;7.90;;;;;;;24.06;53.63;101306.16;106684;1266;70320;-51
2023/06/07 10:52:18;;;;;;;22.40;14.40;;;;;;;24.25;52.26;101308.05;105598;1267;70169;-50
2023/06/07 10:54:45;;;;;;;17.70;9.40;;;;;;;24.28;51.35;101309.98;106254;1267;282354;-48
2023/06/07 10:57:12;;;;;;;12.80;6.10;;;;;;;24.29;51.36;101310.14;106515;1266;61005;-49
2023/06/07 10:59:40;;;;;;;10.80;5.30;;;;;;;24.34;51.90;101307.77;105968;1265;60491;-50
2023/06/07 11:02:20;;;;;;;19.50;12.40;;;;;;;24.48;51.71;101309.11;105821;1266;73471;-50
2023/06/07 11:04:55;;;;;;;17.50;9.60;;;;;;;24.55;51.47;101315.17;105897;1269;71692;-48
2023/06/07 11:07:30;;;;;;;34.30;23.80;;;;;;;24.68;51.08;101309.29;106728;1266;71532;-48
2023/06/07 11:10:01;;;;;;;9.20;5.00;;;;;;;24.75;50.39;101310.67;106791;1265;60507;-51
2023/06/07 11:12:44;;;;;;;11.90;5.60;;;;;;;24.66;49.97;101306.12;105876;1266;60307;-49
2023/06/07 11:15:17;;;;;;;18.40;13.60;;;;;;;24.65;50.73;101304.81;106263;1266;71343;-50
2023/06/07 11:18:08;;;;;;;8.60;4.80;;;;;;;24.73;50.48;101303.81;105852;1266;70048;-49
2023/06/07 11:20:40;;;;;;;7.30;4.60;;;;;;;24.77;51.09;101298.20;105703;1265;73341;-52
2023/06/07 11:23:26;;;;;;;10.60;4.90;;;;;;;24.90;50.78;101297.90;105709;1266;60185;-50
2023/06/07 11:26:20;;;;;;;18.90;13.30;;;;;;;24.87;49.82;101296.63;107035;1266;59241;-50
2023/06/07 11:28:50;;;;;;;14.20;6.30;;;;;;;24.74;50.07;101292.10;106309;1266;73085;-49
2023/06/07 11:31:17;;;;;;;16.90;10.40;;;;;;;24.75;50.87;101294.60;106524;1265;71164;-46
2023/06/07 11:33:44;;;;;;;11.00;5.20;;;;;;;24.78;50.38;101291.66;106906;1265;59818;-48
2023/06/07 11:36:10;;;;;;;9.30;4.50;;;;;;;24.78;50.43;101293.61;108264;1265;57838;-46
2023/06/07 11:38:37;;;;;;;8.30;5.00;;;;;;;24.75;50.20;101295.59;105842;1265;60819;-48
2023/06/07 11:41:08;;;;;;;8.20;4.70;;;;;;;24.70;50.03;101293.08;105990;1269;72785;-48
2023/06/07 11:43:34;;;;;;;71.10;58.00;;;;;;;24.66;50.36;101294.66;106636;1266;71280;-47
2023/06/07 11:46:01;;;;;;;11.50;6.60;;;;;;;24.77;50.36;101290.55;106594;1265;71492;-49
2023/06/07 11:48:29;;;;;;;10.30;4.80;;;;;;;24.92;49.65;101295.92;106184;1269;59635;-48
2023/06/07 11:50:58;;;;;;;11.10;5.00;;;;;;;24.88;49.05;101291.86;106339;1265;59516;-51
2023/06/07 11:53:28;;;;;;;8.10;4.30;;;;;;;24.84;49.97;101287.22;106207;1265;71731;-47
2023/06/07 11:55:55;;;;;;;7.40;4.30;;;;;;;24.92;49.50;101290.27;105667;1266;72413;-49
2023/06/07 11:58:23;;;;;;;7.90;4.20;;;;;;;24.87;48.75;101288.22;106127;1269;71301;-49
2023/06/07 12:00:52;;;;;;;7.50;4.20;;;;;;;24.84;48.16;101286.06;106256;1265;59646;-50
2023/06/07 12:03:22;;;;;;;9.00;4.70;;;;;;;24.75;48.14;101289.45;107443;1265;60355;-48
2023/06/07 12:05:50;;;;;;;14.90;4.70;;;;;;;24.81;48.86;101283.05;105798;1267;71803;-49
2023/06/07 12:08:18;;;;;;;7.10;4.00;;;;;;;25.03;48.70;101282.30;106661;1266;71290;-51
2023/06/07 12:10:52;;;;;;;8.10;4.40;;;;;;;25.31;48.10;101274.20;105817;1265;72817;-50
2023/06/07 12:13:20;;;;;;;9.50;4.30;;;;;;;25.54;47.75;101266.65;105855;1266;60120;-47
2023/06/07 12:15:53;;;;;;;9.90;4.30;;;;;;;25.79;46.62;101261.58;105754;1265;60086;-49
2023/06/07 12:18:32;;;;;;;13.40;4.90;;;;;;;25.98;46.66;101259.05;105923;1265;73120;-50
2023/06/07 12:21:07;;;;;;;8.70;4.00;;;;;;;26.19;45.57;101256.59;107372;1266;71192;-48
2023/06/07 12:23:37;;;;;;;8.90;3.90;;;;;;;26.37;45.88;101258.83;106163;1265;71713;-48
2023/06/07 12:26:10;;;;;;;9.00;4.20;;;;;;;26.61;45.21;101257.67;105630;1266;59609;-49
2023/06/07 12:28:39;;;;;;;7.40;3.80;;;;;;;26.74;44.11;101260.27;106463;1266;60143;-50
2023/06/07 12:31:26;;;;;;;7.70;4.20;;;;;;;26.91;43.70;101263.72;105744;1266;72311;-52
2023/06/07 12:34:03;;;;;;;6.60;3.90;;;;;;;26.98;42.56;101262.57;105918;1267;71169;-48
2023/06/07 12:36:33;;;;;;;8.60;4.00;;;;;;;26.97;43.03;101261.15;105901;1265;73957;-48
2023/06/07 12:39:03;;;;;;;6.90;3.40;;;;;;;27.07;42.89;101260.40;106648;1266;59507;-50
2023/06/07 12:41:32;;;;;;;7.10;3.70;;;;;;;27.14;42.29;101258.55;106613;1266;60375;-53
2023/06/07 12:44:01;;;;;;;12.80;8.80;;;;;;;27.16;42.13;101253.05;106198;1265;73057;-48
2023/06/07 12:46:29;;;;;;;6.60;4.10;;;;;;;27.22;42.58;101249.48;105943;1267;70136;-50
2023/06/07 12:48:56;;;;;;;5.40;3.50;;;;;;;27.37;42.22;101247.91;105860;1265;72908;-51
2023/06/07 12:51:23;;;;;;;10.10;4.30;;;;;;;27.48;41.37;101247.11;105827;1265;60401;-47
2023/06/07 12:53:50;;;;;;;7.10;3.80;;;;;;;27.52;41.54;101250.05;105709;1266;59807;-48
2023/06/07 12:56:17;;;;;;;8.70;5.00;;;;;;;27.56;41.31;101251.13;106516;1268;74079;-51
2023/06/07 12:58:43;;;;;;;7.10;4.00;;;;;;;27.61;41.89;101247.31;106104;1265;71172;-53
2023/06/07 13:01:10;;;;;;;6.40;3.40;;;;;;;27.75;41.64;101241.48;105761;1267;59842;-50
2023/06/07 13:03:37;;;;;;;8.90;5.20;;;;;;;27.86;40.87;101239.23;105698;1266;59555;-50
2023/06/07 13:06:04;;;;;;;9.80;5.40;;;;;;;27.76;39.97;101238.71;105898;1266;60478;-47
2023/06/07 13:08:30;;;;;;;8.00;4.40;;;;;;;27.55;39.79;101233.58;107721;1265;73111;-56
2023/06/07 13:10:57;;;;;;;6.20;3.50;;;;;;;27.45;40.34;101235.30;107947;1268;70465;-48
2023/06/07 13:13:23;;;;;;;6.30;3.60;;;;;;;27.22;40.23;101231.88;108180;1265;57746;-54
2023/06/07 13:15:50;;;;;;;5.20;3.40;;;;;;;27.05;40.82;101224.46;107825;1265;58232;-55
2023/06/07 13:18:17;;;;;;;7.90;3.90;;;;;;;26.98;41.04;101222.02;107902;1265;57358;-52
2023/06/07 13:20:43;;;;;;;9.70;3.60;;;;;;;26.84;41.53;101226.68;107891;1267;71818;-51
2023/06/07 13:23:10;;;;;;;7.50;3.60;;;;;;;26.73;42.05;101223.41;107857;1266;71279;-53
2023/06/07 13:25:36;;;;;;;7.10;3.80;;;;;;;26.79;42.05;101220.95;107861;1265;72890;-48
2023/06/07 13:28:03;;;;;;;7.20;3.80;;;;;;;26.86;41.70;101219.98;107883;1266;58963;-48
2023/06/07 13:30:31;;;;;;;5.00;3.60;;;;;;;26.90;41.71;101215.25;107908;1265;59742;-52
2023/06/07 13:32:58;;;;;;;5.60;3.40;;;;;;;27.18;41.66;101217.54;107858;1266;72215;-50
2023/06/07 13:35:24;;;;;;;8.20;4.00;;;;;;;27.44;40.45;101221.39;107840;1266;71737;-50
2023/06/07 13:37:51;;;;;;;6.30;3.40;;;;;;;27.57;40.49;101215.75;107799;1265;57859;-52
2023/06/07 13:40:17;;;;;;;6.00;3.70;;;;;;;27.77;40.72;101210.46;107818;1267;57893;-54
2023/06/07 13:42:43;;;;;;;7.70;3.60;;;;;;;27.95;40.76;101213.91;107893;1266;57710;-49
2023/06/07 13:45:10;;;;;;;6.50;3.40;;;;;;;28.14;40.11;101210.05;107936;1266;57558;-50
2023/06/07 13:47:37;;;;;;;7.50;3.60;;;;;;;28.08;38.77;101206.71;107885;1265;57928;-52
2023/06/07 13:50:05;;;;;;;7.80;3.60;;;;;;;27.82;39.02;101206.04;107828;1265;72630;-50
2023/06/07 13:52:32;;;;;;;7.70;3.80;;;;;;;27.59;39.47;101204.69;107865;1266;59572;-49
2023/06/07 13:54:59;;;;;;;9.60;3.80;;;;;;;27.51;40.04;101199.96;107893;1265;60111;-52
2023/06/07 13:57:26;;;;;;;8.40;3.40;;;;;;;27.52;39.86;101197.55;107474;1266;71875;-49
2023/06/07 13:59:53;;;;;;;6.70;4.10;;;;;;;27.38;40.07;101197.81;107890;1266;71139;-52
2023/06/07 14:02:20;;;;;;;10.30;6.20;;;;;;;27.31;40.57;101193.95;107834;1269;72279;-49
2023/06/07 14:04:48;;;;;;;6.30;4.10;;;;;;;27.24;40.44;101196.09;107781;1266;59324;-53
2023/06/07 14:07:15;;;;;;;8.00;4.90;;;;;;;27.15;40.96;101190.61;107863;1266;58824;-53
2023/06/07 14:09:42;;;;;;;10.70;5.40;;;;;;;27.25;41.67;101189.11;107817;1266;72281;-53
2023/06/07 14:12:10;;;;;;;50.10;38.50;;;;;;;27.36;41.01;101186.59;107841;1266;58095;-49
2023/06/07 14:14:37;;;;;;;17.50;12.70;;;;;;;27.40;41.27;101182.43;107806;1265;72477;-51
2023/06/07 14:17:04;;;;;;;10.10;6.80;;;;;;;27.48;40.75;101182.86;107824;1266;59191;-54
2023/06/07 14:19:30;;;;;;;9.80;6.10;;;;;;;27.56;40.95;101183.32;107885;1265;59634;-52
2023/06/07 14:21:57;;;;;;;5.70;3.70;;;;;;;27.82;40.61;101181.50;107882;1265;57900;-52
2023/06/07 14:24:23;;;;;;;12.40;7.50;;;;;;;28.08;39.93;101177.64;107865;1266;58078;-50
2023/06/07 14:26:50;;;;;;;7.00;3.60;;;;;;;28.19;39.71;101175.02;107859;1267;57693;-54
2023/06/07 14:29:16;;;;;;;11.50;8.40;;;;;;;28.43;39.77;101171.38;107816;1265;58130;-50
2023/06/07 14:31:43;;;;;;;8.50;5.30;;;;;;;28.70;38.93;101171.96;107841;1269;57519;-52
2023/06/07 14:34:09;;;;;;;9.70;5.20;;;;;;;29.09;39.28;101167.70;107840;1266;58482;-53
2023/06/07 14:36:37;;;;;;;14.60;10.40;;;;;;;29.43;38.41;101167.96;107895;1266;57967;-49
2023/06/07 14:39:08;;;;;;;15.40;10.60;;;;;;;29.71;37.38;101165.47;107901;1265;72033;-53
2023/06/07 14:41:34;;;;;;;8.30;4.20;;;;;;;29.93;36.56;101167.66;107828;1265;61113;-53
2023/06/07 14:44:01;;;;;;;7.50;4.10;;;;;;;29.84;36.11;101161.09;107853;1265;59405;-56
2023/06/07 14:46:27;;;;;;;25.00;20.50;;;;;;;29.77;36.63;101162.83;107783;1266;58198;-52
2023/06/07 14:48:54;;;;;;;13.10;10.10;;;;;;;29.87;36.75;101160.14;107816;1265;70687;-50
2023/06/07 14:51:23;;;;;;;174.60;155.90;;;;;;;30.14;36.79;101159.83;107854;1266;58482;-49
2023/06/07 14:53:49;;;;;;;233.10;209.60;;;;;;;30.83;36.04;101154.88;107841;1265;59535;-49
2023/06/07 14:56:16;;;;;;;18.50;15.10;;;;;;;31.65;34.16;101154.35;107873;1265;60046;-49
2023/06/07 14:58:43;;;;;;;6.20;3.60;;;;;;;32.52;33.21;101153.04;107221;1266;58544;-53
2023/06/07 15:01:12;;;;;;;8.10;3.30;;;;;;;33.31;31.98;101148.30;107805;1266;70585;-53
2023/06/07 15:03:39;;;;;;;5.20;3.30;;;;;;;33.98;31.06;101149.31;107840;1266;73410;-50
2023/06/07 15:06:05;;;;;;;5.90;3.00;;;;;;;34.37;30.00;101147.48;107904;1266;58917;-52
2023/06/07 15:08:32;;;;;;;7.60;3.60;;;;;;;34.63;29.31;101143.20;107868;1265;59147;-52
2023/06/07 15:10:59;;;;;;;4.40;3.00;;;;;;;34.84;29.21;101144.08;107884;1266;74025;-54
2023/06/07 15:13:25;;;;;;;6.50;3.00;;;;;;;34.88;28.59;101145.36;107897;1265;58415;-51
2023/06/07 15:15:52;;;;;;;5.70;3.00;;;;;;;34.54;28.34;101146.10;107907;1266;58380;-51
2023/06/07 15:18:20;;;;;;;3.60;2.50;;;;;;;34.16;27.96;101142.89;107860;1265;58906;-53
2023/06/07 15:20:47;;;;;;;5.00;2.70;;;;;;;33.72;27.85;101142.73;107887;1265;59672;-51
2023/06/07 15:23:13;;;;;;;6.20;2.80;;;;;;;33.29;28.57;101135.39;107887;1265;59181;-54
2023/06/07 15:25:40;;;;;;;4.00;2.90;;;;;;;32.87;29.10;101138.86;107843;1269;70861;-52
2023/06/07 15:28:07;;;;;;;5.70;2.90;;;;;;;32.42;29.53;101137.55;107794;1265;58798;-52
2023/06/07 15:30:34;;;;;;;6.80;4.20;;;;;;;31.89;30.61;101137.16;107694;1265;59792;-53
2023/06/07 15:33:00;;;;;;;9.50;4.90;;;;;;;31.44;31.41;101132.13;107831;1265;60473;-54
2023/06/07 15:35:27;;;;;;;9.70;4.20;;;;;;;31.11;32.28;101133.90;107808;1266;58509;-50
2023/06/07 15:37:53;;;;;;;6.80;3.50;;;;;;;30.77;32.63;101132.46;107639;1265;60505;-48
2023/06/07 15:40:20;;;;;;;7.20;4.50;;;;;;;30.45;33.45;101131.46;108414;1265;58361;-46
2023/06/07 15:42:46;;;;;;;8.70;4.20;;;;;;;30.16;33.89;101131.49;108410;1265;58275;-48
2023/06/07 15:45:14;;;;;;;23.10;10.40;;;;;;;29.85;34.51;101132.37;107173;1262;60476;-47
2023/06/07 15:47:57;;;;;;;25.60;9.90;;;;;;;29.58;35.15;101125.86;106706;1262;72674;-48
2023/06/07 15:50:23;;;;;;;14.10;4.70;;;;;;;29.32;35.57;101126.22;106007;1262;69970;-49
2023/06/07 15:52:50;;;;;;;36.20;15.20;;;;;;;29.12;36.08;101118.77;106747;1264;60394;-46
2023/06/07 15:55:17;;;;;;;16.70;7.60;;;;;;;28.93;36.55;101116.86;105662;1262;60930;-50
2023/06/07 15:57:43;;;;;;;27.10;10.90;;;;;;;28.72;36.78;101117.55;106472;1263;60444;-47
2023/06/07 16:00:12;;;;;;;30.50;13.60;;;;;;;28.52;37.27;101123.13;106142;1262;73351;-47
2023/06/07 16:02:57;;;;;;;14.00;6.20;;;;;;;28.35;37.57;101117.39;106790;1263;69936;-48
2023/06/07 16:05:25;;;;;;;20.30;8.80;;;;;;;28.27;37.93;101116.41;106186;1262;72803;-50
2023/06/07 16:07:52;;;;;;;10.40;5.10;;;;;;;28.28;38.28;101116.89;106721;1265;60449;-46
2023/06/07 16:10:19;;;;;;;31.90;12.10;;;;;;;28.43;38.43;101113.41;106868;1264;60396;-47
2023/06/07 16:12:45;;;;;;;18.10;7.80;;;;;;;28.73;38.48;101109.25;106409;1262;72322;-49
2023/06/07 16:15:12;;;;;;;6.40;3.40;;;;;;;28.97;37.51;101113.45;106259;1263;60492;-47
2023/06/07 16:17:38;;;;;;;8.20;4.50;;;;;;;29.11;37.26;101108.14;106953;1262;61665;-48
2023/06/07 16:20:05;;;;;;;7.20;3.80;;;;;;;29.30;36.89;101109.52;106770;1262;60547;-46
2023/06/07 16:22:33;;;;;;;12.20;5.20;;;;;;;29.68;36.16;101105.95;106260;1262;60483;-49
2023/06/07 16:24:59;;;;;;;14.60;6.50;;;;;;;30.08;35.48;101103.98;106593;1262;59260;-47
2023/06/07 16:27:26;;;;;;;12.30;6.60;;;;;;;30.50;34.42;101104.10;106731;1265;60415;-48
2023/06/07 16:29:53;;;;;;;8.70;4.50;;;;;;;30.82;33.69;101103.67;106659;1263;71564;-46
2023/06/07 16:32:19;;;;;;;7.70;3.70;;;;;;;30.83;33.04;101098.55;106405;1262;60585;-50
2023/06/07 16:34:46;;;;;;;10.60;4.60;;;;;;;30.84;32.98;101100.77;106295;1265;60360;-48
2023/06/07 16:37:12;;;;;;;7.50;3.40;;;;;;;30.91;33.07;101097.89;107045;1262;58698;-49
2023/06/07 16:39:39;;;;;;;5.50;3.80;;;;;;;31.08;33.14;101094.73;106462;1263;60527;-47
2023/06/07 16:42:05;;;;;;;6.80;3.80;;;;;;;31.35;32.11;101094.64;106678;1263;60540;-47
2023/06/07 16:44:32;;;;;;;9.90;4.80;;;;;;;31.80;32.27;101094.17;108210;1262;59430;-52
2023/06/07 16:46:58;;;;;;;7.10;3.40;;;;;;;32.52;31.78;101094.08;108323;1265;57942;-48
2023/06/07 16:49:25;;;;;;;5.80;3.40;;;;;;;33.18;30.33;101091.16;106624;1262;73426;-46
2023/06/07 16:51:51;;;;;;;8.30;4.60;;;;;;;33.48;30.04;101088.30;107377;1262;60556;-48
2023/06/07 16:54:18;;;;;;;3.70;2.90;;;;;;;33.53;29.42;101086.52;106781;1263;60438;-50
2023/06/07 16:56:44;;;;;;;6.90;4.10;;;;;;;33.41;29.16;101084.73;108038;1262;58349;-48
2023/06/07 16:59:11;;;;;;;5.90;3.30;;;;;;;33.33;29.00;101084.23;108458;1253;58343;-48
2023/06/07 17:01:39;;;;;;;9.40;4.40;;;;;;;33.31;29.83;101082.06;107845;1258;73915;-47
2023/06/07 17:04:06;;;;;;;5.80;3.60;;;;;;;33.41;29.78;101082.37;107553;1257;71144;-48
2023/06/07 17:06:33;;;;;;;7.80;3.60;;;;;;;33.28;29.58;101080.11;107023;1253;72599;-49
2023/06/07 17:08:59;;;;;;;13.30;4.30;;;;;;;33.12;30.03;101082.65;107011;1256;60930;-46
2023/06/07 17:11:26;;;;;;;7.40;3.90;;;;;;;32.97;30.15;101084.25;106775;1257;60422;-46
2023/06/07 17:13:53;;;;;;;10.10;5.00;;;;;;;32.91;29.95;101079.96;107417;1257;73858;-45
2023/06/07 17:16:19;;;;;;;15.90;5.50;;;;;;;33.03;30.02;101075.80;106909;1256;69842;-48
2023/06/07 17:18:46;;;;;;;6.10;3.40;;;;;;;32.85;29.94;101073.69;108841;1257;73201;-50
2023/06/07 17:21:12;;;;;;;8.80;4.80;;;;;;;32.78;30.34;101078.70;108815;1257;59174;-47
2023/06/07 17:23:39;;;;;;;11.30;5.10;;;;;;;32.85;30.43;101075.44;108862;1258;58271;-50
2023/06/07 17:26:06;;;;;;;9.70;5.00;;;;;;;33.31;29.71;101074.23;108844;1257;73226;-49
2023/06/07 17:28:33;;;;;;;5.80;3.20;;;;;;;33.64;29.57;101074.42;108882;1257;70456;-52
2023/06/07 17:31:00;;;;;;;9.50;4.50;;;;;;;34.20;29.15;101072.45;108824;1259;72685;-53
2023/06/07 17:33:26;;;;;;;7.00;3.50;;;;;;;34.90;28.39;101069.98;108850;1257;58529;-48
2023/06/07 17:35:53;;;;;;;12.30;5.30;;;;;;;35.13;27.96;101066.94;107364;1259;60455;-46
2023/06/07 17:38:19;;;;;;;6.90;3.70;;;;;;;35.07;27.83;101068.41;106788;1258;60369;-47
2023/06/07 17:40:46;;;;;;;6.90;3.50;;;;;;;35.14;27.90;101068.63;107133;1257;60541;-49
2023/06/07 17:43:12;;;;;;;7.70;2.90;;;;;;;35.22;27.88;101068.23;106917;1258;60470;-48
2023/06/07 17:45:39;;;;;;;6.20;3.40;;;;;;;35.16;27.71;101065.70;106328;1260;60563;-49
2023/06/07 17:48:06;;;;;;;5.60;3.10;;;;;;;35.25;27.74;101064.58;106336;1261;60476;-48
2023/06/07 17:50:32;;;;;;;7.70;4.40;;;;;;;35.43;27.60;101065.75;107571;1257;73661;-50
2023/06/07 17:53:07;;;;;;;4.80;3.10;;;;;;;35.38;27.09;101063.52;107158;1257;69933;-46
2023/06/07 17:55:34;;;;;;;10.10;5.10;;;;;;;35.14;27.65;101064.92;106378;1260;72706;-46
2023/06/07 17:58:01;;;;;;;7.90;3.50;;;;;;;34.71;28.02;101065.99;106612;1257;59601;-49
2023/06/07 18:00:27;;;;;;;8.80;3.50;;;;;;;34.18;28.51;101066.91;106695;1259;61532;-48
2023/06/07 18:02:54;;;;;;;8.80;4.90;;;;;;;33.74;29.18;101068.87;107062;1258;60487;-47
2023/06/07 18:05:22;;;;;;;7.70;4.30;;;;;;;33.30;29.66;101066.18;106764;1258;71233;-47
2023/06/07 18:07:48;;;;;;;7.60;4.60;;;;;;;32.82;30.44;101069.63;107457;1258;71525;-52
2023/06/07 18:10:15;;;;;;;7.50;3.40;;;;;;;32.47;30.84;101075.54;107977;1259;58423;-48
2023/06/07 18:12:41;;;;;;;5.80;3.70;;;;;;;32.32;31.40;101071.05;108610;1257;58176;-51
2023/06/07 18:15:08;;;;;;;8.20;3.90;;;;;;;32.40;31.68;101075.06;107892;1259;73576;-46
2023/06/07 18:17:35;;;;;;;7.10;3.40;;;;;;;32.50;31.75;101071.66;107825;1259;69879;-47
2023/06/07 18:20:01;;;;;;;4.10;3.20;;;;;;;32.55;31.55;101070.04;107104;1257;72660;-51
2023/06/07 18:22:28;;;;;;;5.80;3.20;;;;;;;32.55;31.47;101070.92;107148;1258;60290;-49
2023/06/07 18:24:55;;;;;;;6.60;3.60;;;;;;;32.20;31.49;101069.34;108042;1258;59348;-52
2023/06/07 18:27:21;;;;;;;4.60;2.90;;;;;;;31.71;32.13;101071.27;108321;1262;58324;-53
2023/06/07 18:29:48;;;;;;;6.60;3.10;;;;;;;31.21;32.67;101069.14;108307;1261;58617;-53
2023/06/07 18:32:14;;;;;;;7.20;3.50;;;;;;;30.60;32.92;101067.34;108295;1258;58850;-49
2023/06/07 18:34:41;;;;;;;6.00;4.10;;;;;;;30.07;34.20;101069.30;108298;1259;59432;-55
2023/06/07 18:37:07;;;;;;;4.60;2.80;;;;;;;29.60;34.75;101072.20;108314;1259;59754;-52
2023/06/07 18:39:34;;;;;;;6.10;3.10;;;;;;;29.12;35.07;101071.58;108279;1262;58251;-55
2023/06/07 18:42:01;;;;;;;6.50;3.20;;;;;;;28.66;35.85;101074.64;108258;1259;71902;-51
2023/06/07 18:44:30;;;;;;;5.40;3.20;;;;;;;28.24;36.39;101069.51;108189;1259;71487;-52
2023/06/07 18:46:56;;;;;;;6.90;3.40;;;;;;;27.87;37.10;101073.52;107740;1259;59125;-54
2023/06/07 18:49:23;;;;;;;5.30;3.60;;;;;;;27.51;37.67;101078.48;107599;1258;60833;-54
2023/06/07 18:52:12;;;;;;;8.80;3.80;;;;;;;27.22;38.17;101078.73;107537;1258;58706;-53
2023/06/07 18:54:38;;;;;;;7.00;4.00;;;;;;;26.88;38.94;101078.59;107550;1260;71804;-52
2023/06/07 18:57:06;;;;;;;6.50;3.70;;;;;;;26.60;39.57;101076.28;107591;1262;73102;-54
2023/06/07 18:59:32;;;;;;;8.30;3.60;;;;;;;26.34;40.06;101075.88;107546;1260;58874;-56
2023/06/07 19:01:59;;;;;;;6.60;3.20;;;;;;;26.10;40.96;101073.90;107549;1258;58166;-56
2023/06/07 19:04:27;;;;;;;5.50;3.40;;;;;;;25.87;41.47;101078.23;107583;1258;73555;-54
2023/06/07 19:06:54;;;;;;;7.50;3.80;;;;;;;25.65;42.02;101073.83;107575;1262;72295;-56
2023/06/07 19:09:21;;;;;;;6.10;3.70;;;;;;;25.44;42.32;101074.02;107513;1260;71011;-53
2023/06/07 19:11:47;;;;;;;8.30;3.80;;;;;;;25.25;42.77;101072.34;107511;1262;58683;-52
2023/06/07 19:14:20;;;;;;;12.90;3.90;;;;;;;25.04;43.54;101075.95;107475;1262;60062;-50
2023/06/07 19:16:47;;;;;;;9.50;4.70;;;;;;;24.87;44.02;101075.09;107647;1261;73925;-52
2023/06/07 19:19:14;;;;;;;6.60;3.80;;;;;;;24.70;44.55;101079.03;107628;1262;71153;-51
2023/06/07 19:21:41;;;;;;;7.10;4.30;;;;;;;24.53;45.41;101076.52;107510;1260;72053;-51
2023/06/07 19:24:08;;;;;;;6.50;4.20;;;;;;;24.35;45.90;101076.12;107538;1257;59600;-50
2023/06/07 19:26:35;;;;;;;6.40;4.20;;;;;;;24.21;46.99;101075.50;107525;1260;60078;-55
2023/06/07 19:29:02;;;;;;;7.00;4.40;;;;;;;24.12;47.83;101075.25;107651;1257;73806;-51
2023/06/07 19:31:29;;;;;;;6.20;4.10;;;;;;;24.03;48.03;101075.60;107637;1262;70120;-55
2023/06/07 19:33:55;;;;;;;7.00;4.10;;;;;;;23.93;48.46;101072.95;107652;1257;71504;-53
2023/06/07 19:36:22;;;;;;;8.30;4.20;;;;;;;23.85;48.97;101078.98;107450;1260;58870;-50
2023/06/07 19:38:50;;;;;;;6.70;4.30;;;;;;;23.81;49.30;101080.94;107548;1261;58955;-53
2023/06/07 19:41:19;;;;;;;9.00;4.60;;;;;;;23.75;49.52;101082.34;107597;1260;72932;-52
2023/06/07 19:43:46;;;;;;;7.80;4.20;;;;;;;23.69;50.11;101083.39;107276;1259;70872;-51
2023/06/07 19:46:13;;;;;;;5.90;4.30;;;;;;;23.65;50.18;101083.98;107561;1257;71407;-55
2023/06/07 19:48:40;;;;;;;7.10;3.90;;;;;;;23.61;50.70;101079.27;107176;1259;60441;-50
2023/06/07 19:51:07;;;;;;;8.30;4.60;;;;;;;23.58;50.92;101078.27;107515;1258;58536;-54
2023/06/07 19:53:33;;;;;;;5.80;4.20;;;;;;;23.53;51.11;101079.73;107506;1259;72357;-57
2023/06/07 19:56:01;;;;;;;8.10;4.20;;;;;;;23.47;51.27;101079.88;107932;1255;184380;-72
2023/06/07 19:58:28;;;;;;;6.10;3.90;;;;;;;23.42;51.39;101081.86;108043;1262;71539;-72
2023/06/07 20:00:56;;;;;;;6.50;4.50;;;;;;;23.32;51.65;101083.46;108048;1261;60457;-72
2023/06/07 20:07:11;;;;;;;6.40;4.00;;;;;;;23.20;52.46;101084.27;106259;1261;74373;-70
2023/06/07 20:09:39;;;;;;;8.20;4.30;;;;;;;23.12;52.42;101087.46;106427;1263;69394;-73
2023/06/07 20:12:07;;;;;;;7.10;4.30;;;;;;;22.95;52.15;101088.55;106493;1264;71672;-72
2023/06/07 20:18:15;;;;;;;7.20;4.40;;;;;;;22.33;53.31;101086.08;106758;1260;60359;-72
2023/06/07 20:20:42;;;;;;;8.10;4.60;;;;;;;22.07;54.04;101085.48;106588;1262;71771;-69
2023/06/07 20:23:11;;;;;;;6.00;4.40;;;;;;;21.85;54.87;101086.10;106785;1260;69898;-70
2023/06/07 20:25:38;;;;;;;8.10;4.60;;;;;;;21.60;55.96;101090.89;106697;1262;73558;-70
2023/06/07 20:28:05;;;;;;;8.70;4.70;;;;;;;21.35;56.91;101092.82;107056;1260;60583;-70
2023/06/07 20:30:31;;;;;;;8.40;5.10;;;;;;;21.13;57.67;101098.33;106646;1260;60414;-70
2023/06/07 20:33:07;;;;;;;6.10;4.40;;;;;;;20.92;58.39;101105.13;106757;1262;72721;-70
2023/06/07 20:35:34;;;;;;;7.30;4.70;;;;;;;20.67;60.23;101109.40;107479;1259;71209;-71
2023/06/07 20:38:01;;;;;;;8.30;5.60;;;;;;;20.44;60.94;101113.45;106670;1261;71459;-71
2023/06/07 20:40:29;;;;;;;9.20;5.30;;;;;;;20.24;61.46;101111.42;107551;1260;61811;-70
2023/06/07 20:42:59;;;;;;;8.80;4.70;;;;;;;20.08;61.70;101110.02;107569;1264;59459;-70
2023/06/07 20:45:26;;;;;;;8.90;4.90;;;;;;;19.95;61.99;101111.94;106905;1260;73603;-71
2023/06/07 20:47:53;;;;;;;8.60;4.80;;;;;;;19.84;62.15;101111.41;107263;1259;70238;-68
2023/06/07 20:50:21;;;;;;;9.00;4.90;;;;;;;19.74;62.65;101114.02;107819;1259;72697;-71
2023/06/07 20:52:48;;;;;;;9.20;5.20;;;;;;;19.65;62.79;101117.85;107158;1260;61508;-71
2023/06/07 20:55:15;;;;;;;9.60;5.40;;;;;;;19.57;63.20;101121.13;107042;1262;60440;-71
2023/06/07 20:57:46;;;;;;;9.70;5.00;;;;;;;19.51;63.49;101123.52;107082;1265;73908;-70
2023/06/07 21:00:16;;;;;;;9.80;5.20;;;;;;;19.44;63.76;101126.53;107145;1260;72079;-71
2023/06/07 21:02:55;;;;;;;10.00;4.80;;;;;;;19.37;64.02;101128.17;107010;1265;71623;-70
2023/06/07 21:05:26;;;;;;;9.20;5.00;;;;;;;19.30;64.34;101132.23;107066;1261;61269;-70
2023/06/07 21:07:54;;;;;;;9.40;4.80;;;;;;;19.25;64.62;101129.84;107067;1260;60602;-70
2023/06/07 21:10:21;;;;;;;9.20;5.60;;;;;;;19.19;64.73;101129.44;106983;1265;72537;-71
2023/06/07 21:12:48;;;;;;;9.60;4.80;;;;;;;19.14;64.81;101128.98;107097;1259;71683;-70
2023/06/07 21:15:15;;;;;;;10.10;5.50;;;;;;;19.10;64.96;101129.76;106715;1260;71759;-71
2023/06/07 21:17:43;;;;;;;10.50;4.70;;;;;;;19.06;64.98;101133.94;106681;1259;61040;-71
2023/06/07 21:20:11;;;;;;;8.80;4.80;;;;;;;19.01;65.20;101129.77;106219;1262;60493;-69
2023/06/07 21:22:38;;;;;;;9.00;4.30;;;;;;;18.97;65.30;101130.74;106224;1259;72993;-69
2023/06/07 21:25:04;;;;;;;10.30;5.00;;;;;;;18.93;65.48;101133.52;106703;1260;70519;-73
2023/06/07 21:27:31;;;;;;;8.40;4.70;;;;;;;18.87;65.68;101134.84;106820;1260;71756;-71
2023/06/07 21:29:58;;;;;;;9.80;5.00;;;;;;;18.83;65.79;101132.81;106712;1265;61100;-69
2023/06/07 21:32:26;;;;;;;9.60;4.70;;;;;;;18.79;65.80;101133.49;106475;1262;60471;-70
2023/06/07 21:34:53;;;;;;;7.50;4.70;;;;;;;18.76;65.69;101133.78;106590;1261;74250;-70
2023/06/07 21:37:20;;;;;;;9.50;4.90;;;;;;;18.71;65.81;101131.84;106614;1261;72746;-71
2023/06/07 21:39:47;;;;;;;10.40;4.80;;;;;;;18.68;65.99;101131.28;106559;1259;71536;-71
2023/06/07 21:42:14;;;;;;;11.00;4.90;;;;;;;18.62;66.12;101131.77;106241;1259;60855;-71
2023/06/07 21:44:41;;;;;;;10.50;5.00;;;;;;;18.57;66.27;101130.73;106842;1260;59635;-70
2023/06/07 21:47:08;;;;;;;8.30;4.70;;;;;;;18.52;66.37;101133.54;106597;1262;73815;-70
2023/06/07 21:49:34;;;;;;;8.30;4.50;;;;;;;18.46;66.43;101135.27;106612;1259;69181;-70
2023/06/07 21:52:01;;;;;;;9.90;4.60;;;;;;;18.42;66.31;101138.35;106350;1263;71347;-71
2023/06/07 21:54:30;;;;;;;9.40;4.50;;;;;;;18.37;66.41;101139.29;106171;1261;60885;-71
2023/06/07 21:56:56;;;;;;;10.60;4.80;;;;;;;18.31;66.54;101139.16;106282;1260;59200;-71
2023/06/07 21:59:23;;;;;;;8.70;4.50;;;;;;;18.26;66.58;101137.49;106422;1261;73932;-70
2023/06/07 22:01:50;;;;;;;10.40;4.60;;;;;;;18.22;66.59;101135.53;107133;1261;71390;-71
2023/06/07 22:04:17;;;;;;;9.60;4.40;;;;;;;18.18;66.66;101132.38;107421;1262;71175;-71
2023/06/07 22:06:44;;;;;;;7.80;4.50;;;;;;;18.14;66.79;101133.13;108036;1260;60331;-70